<?xml version="1.0" encoding="UTF-8" standalone="no" ?>
<gpx xmlns="http://www.topografix.com/GPX/1/1" xmlns:xsi="http://www.w3.org/2001/XMLSchema-instance" xsi:schemaLocation="http://www.topografix.com/GPX/1/1 http://www.topografix.com/GPX/1/1/gpx.xsd" version="1.1" creator="VisuGPX - https://www.visugpx.com">
  <metadata>
    <name>13637753-Oingt balade g1</name>
  </metadata>
  <trk>
    <name><![CDATA[13637753-Oingt balade g1]]></name>
    <extensions>
      <line xmlns="http://www.topografix.com/GPX/gpx_style/0/2">
        <color>0000FF</color>
        <width>4</width>
        <dasharray>12</dasharray>
      </line>
    </extensions>
    <trkseg>
      <trkpt lat="45.94876" lon="4.58217">
        <ele>524</ele>
        <time>2021-08-30T19:48:16Z</time>
      </trkpt>
      <trkpt lat="45.94876" lon="4.58217">
        <ele>524</ele>
        <time>2021-08-30T19:48:16Z</time>
      </trkpt>
      <trkpt lat="45.94876" lon="4.58243">
        <ele>528</ele>
        <time>2021-08-30T19:48:40Z</time>
      </trkpt>
      <trkpt lat="45.94872" lon="4.58258">
        <ele>529</ele>
        <time>2021-08-30T19:48:55Z</time>
      </trkpt>
      <trkpt lat="45.94867" lon="4.58283">
        <ele>530</ele>
        <time>2021-08-30T19:49:19Z</time>
      </trkpt>
      <trkpt lat="45.94871" lon="4.58296">
        <ele>529</ele>
        <time>2021-08-30T19:49:32Z</time>
      </trkpt>
      <trkpt lat="45.94881" lon="4.58305">
        <ele>528</ele>
        <time>2021-08-30T19:49:48Z</time>
      </trkpt>
      <trkpt lat="45.94891" lon="4.58303">
        <ele>527</ele>
        <time>2021-08-30T19:50:02Z</time>
      </trkpt>
      <trkpt lat="45.94893" lon="4.58303">
        <ele>527</ele>
        <time>2021-08-30T19:50:04Z</time>
      </trkpt>
      <trkpt lat="45.94891" lon="4.58303">
        <ele>527</ele>
        <time>2021-08-30T19:50:07Z</time>
      </trkpt>
      <trkpt lat="45.94881" lon="4.58305">
        <ele>528</ele>
        <time>2021-08-30T19:50:20Z</time>
      </trkpt>
      <trkpt lat="45.94871" lon="4.58296">
        <ele>529</ele>
        <time>2021-08-30T19:50:36Z</time>
      </trkpt>
      <trkpt lat="45.94867" lon="4.58283">
        <ele>530</ele>
        <time>2021-08-30T19:50:49Z</time>
      </trkpt>
      <trkpt lat="45.94855" lon="4.58281">
        <ele>531</ele>
        <time>2021-08-30T19:51:05Z</time>
      </trkpt>
      <trkpt lat="45.948" lon="4.58251">
        <ele>537</ele>
        <time>2021-08-30T19:52:24Z</time>
      </trkpt>
      <trkpt lat="45.94802" lon="4.58229">
        <ele>534</ele>
        <time>2021-08-30T19:52:45Z</time>
      </trkpt>
      <trkpt lat="45.94825" lon="4.5821">
        <ele>532</ele>
        <time>2021-08-30T19:53:20Z</time>
      </trkpt>
      <trkpt lat="45.94807" lon="4.58185">
        <ele>529</ele>
        <time>2021-08-30T19:53:53Z</time>
      </trkpt>
      <trkpt lat="45.94791" lon="4.58203">
        <ele>531</ele>
        <time>2021-08-30T19:54:20Z</time>
      </trkpt>
      <trkpt lat="45.94757" lon="4.5818">
        <ele>529</ele>
        <time>2021-08-30T19:55:11Z</time>
      </trkpt>
      <trkpt lat="45.94748" lon="4.58184">
        <ele>529</ele>
        <time>2021-08-30T19:55:23Z</time>
      </trkpt>
      <trkpt lat="45.94745" lon="4.58181">
        <ele>528</ele>
        <time>2021-08-30T19:55:28Z</time>
      </trkpt>
      <trkpt lat="45.94745" lon="4.58177">
        <ele>528</ele>
        <time>2021-08-30T19:55:32Z</time>
      </trkpt>
      <trkpt lat="45.94763" lon="4.58159">
        <ele>525</ele>
        <time>2021-08-30T19:56:01Z</time>
      </trkpt>
      <trkpt lat="45.94768" lon="4.58156">
        <ele>525</ele>
        <time>2021-08-30T19:56:08Z</time>
      </trkpt>
      <trkpt lat="45.94772" lon="4.5815">
        <ele>523</ele>
        <time>2021-08-30T19:56:16Z</time>
      </trkpt>
      <trkpt lat="45.9477" lon="4.58149">
        <ele>523</ele>
        <time>2021-08-30T19:56:19Z</time>
      </trkpt>
      <trkpt lat="45.9477" lon="4.58142">
        <ele>522</ele>
        <time>2021-08-30T19:56:25Z</time>
      </trkpt>
      <trkpt lat="45.94771" lon="4.58139">
        <ele>521</ele>
        <time>2021-08-30T19:56:28Z</time>
      </trkpt>
      <trkpt lat="45.9476" lon="4.58136">
        <ele>521</ele>
        <time>2021-08-30T19:56:43Z</time>
      </trkpt>
      <trkpt lat="45.94761" lon="4.58124">
        <ele>518</ele>
        <time>2021-08-30T19:56:54Z</time>
      </trkpt>
      <trkpt lat="45.94771" lon="4.581">
        <ele>513</ele>
        <time>2021-08-30T19:57:20Z</time>
      </trkpt>
      <trkpt lat="45.94762" lon="4.58099">
        <ele>513</ele>
        <time>2021-08-30T19:57:32Z</time>
      </trkpt>
      <trkpt lat="45.94754" lon="4.58126">
        <ele>519</ele>
        <time>2021-08-30T19:58:00Z</time>
      </trkpt>
      <trkpt lat="45.94744" lon="4.58147">
        <ele>522</ele>
        <time>2021-08-30T19:58:23Z</time>
      </trkpt>
      <trkpt lat="45.94735" lon="4.58181">
        <ele>527</ele>
        <time>2021-08-30T19:58:57Z</time>
      </trkpt>
      <trkpt lat="45.94704" lon="4.58201">
        <ele>525</ele>
        <time>2021-08-30T19:59:42Z</time>
      </trkpt>
      <trkpt lat="45.94691" lon="4.58216">
        <ele>526</ele>
        <time>2021-08-30T20:00:05Z</time>
      </trkpt>
      <trkpt lat="45.94686" lon="4.58228">
        <ele>527</ele>
        <time>2021-08-30T20:00:18Z</time>
      </trkpt>
      <trkpt lat="45.94677" lon="4.58269">
        <ele>527</ele>
        <time>2021-08-30T20:00:58Z</time>
      </trkpt>
      <trkpt lat="45.94672" lon="4.58279">
        <ele>526</ele>
        <time>2021-08-30T20:01:09Z</time>
      </trkpt>
      <trkpt lat="45.9473" lon="4.58267">
        <ele>533</ele>
        <time>2021-08-30T20:02:27Z</time>
      </trkpt>
      <trkpt lat="45.94672" lon="4.58279">
        <ele>526</ele>
        <time>2021-08-30T20:03:45Z</time>
      </trkpt>
      <trkpt lat="45.9468" lon="4.58288">
        <ele>526</ele>
        <time>2021-08-30T20:03:59Z</time>
      </trkpt>
      <trkpt lat="45.94676" lon="4.58304">
        <ele>524</ele>
        <time>2021-08-30T20:04:15Z</time>
      </trkpt>
      <trkpt lat="45.94667" lon="4.58315">
        <ele>523</ele>
        <time>2021-08-30T20:04:30Z</time>
      </trkpt>
      <trkpt lat="45.94658" lon="4.58393">
        <ele>512</ele>
        <time>2021-08-30T20:05:44Z</time>
      </trkpt>
      <trkpt lat="45.94659" lon="4.58415">
        <ele>509</ele>
        <time>2021-08-30T20:06:04Z</time>
      </trkpt>
      <trkpt lat="45.94648" lon="4.58431">
        <ele>507</ele>
        <time>2021-08-30T20:06:25Z</time>
      </trkpt>
      <trkpt lat="45.94628" lon="4.58475">
        <ele>501</ele>
        <time>2021-08-30T20:07:14Z</time>
      </trkpt>
      <trkpt lat="45.94593" lon="4.58499">
        <ele>497</ele>
        <time>2021-08-30T20:08:06Z</time>
      </trkpt>
      <trkpt lat="45.94566" lon="4.58535">
        <ele>491</ele>
        <time>2021-08-30T20:08:55Z</time>
      </trkpt>
      <trkpt lat="45.94544" lon="4.58564">
        <ele>486</ele>
        <time>2021-08-30T20:09:35Z</time>
      </trkpt>
      <trkpt lat="45.94517" lon="4.58593">
        <ele>480</ele>
        <time>2021-08-30T20:10:20Z</time>
      </trkpt>
      <trkpt lat="45.94433" lon="4.58654">
        <ele>467</ele>
        <time>2021-08-30T20:12:25Z</time>
      </trkpt>
      <trkpt lat="45.94424" lon="4.5867">
        <ele>464</ele>
        <time>2021-08-30T20:12:44Z</time>
      </trkpt>
      <trkpt lat="45.94393" lon="4.5874">
        <ele>456</ele>
        <time>2021-08-30T20:14:01Z</time>
      </trkpt>
      <trkpt lat="45.94344" lon="4.58797">
        <ele>447</ele>
        <time>2021-08-30T20:15:25Z</time>
      </trkpt>
      <trkpt lat="45.94223" lon="4.58912">
        <ele>435</ele>
        <time>2021-08-30T20:18:39Z</time>
      </trkpt>
      <trkpt lat="45.94221" lon="4.58922">
        <ele>435</ele>
        <time>2021-08-30T20:18:49Z</time>
      </trkpt>
      <trkpt lat="45.94227" lon="4.58929">
        <ele>434</ele>
        <time>2021-08-30T20:18:59Z</time>
      </trkpt>
      <trkpt lat="45.94231" lon="4.58941">
        <ele>434</ele>
        <time>2021-08-30T20:19:11Z</time>
      </trkpt>
      <trkpt lat="45.94234" lon="4.58966">
        <ele>434</ele>
        <time>2021-08-30T20:19:35Z</time>
      </trkpt>
      <trkpt lat="45.94232" lon="4.58971">
        <ele>434</ele>
        <time>2021-08-30T20:19:40Z</time>
      </trkpt>
      <trkpt lat="45.94216" lon="4.58994">
        <ele>433</ele>
        <time>2021-08-30T20:20:10Z</time>
      </trkpt>
      <trkpt lat="45.94213" lon="4.59002">
        <ele>433</ele>
        <time>2021-08-30T20:20:19Z</time>
      </trkpt>
      <trkpt lat="45.94212" lon="4.59022">
        <ele>435</ele>
        <time>2021-08-30T20:20:37Z</time>
      </trkpt>
      <trkpt lat="45.94215" lon="4.59038">
        <ele>438</ele>
        <time>2021-08-30T20:20:53Z</time>
      </trkpt>
      <trkpt lat="45.94222" lon="4.59056">
        <ele>441</ele>
        <time>2021-08-30T20:21:12Z</time>
      </trkpt>
      <trkpt lat="45.94239" lon="4.59063">
        <ele>443</ele>
        <time>2021-08-30T20:21:35Z</time>
      </trkpt>
      <trkpt lat="45.94277" lon="4.59112">
        <ele>455</ele>
        <time>2021-08-30T20:22:44Z</time>
      </trkpt>
      <trkpt lat="45.94309" lon="4.5918">
        <ele>465</ele>
        <time>2021-08-30T20:24:00Z</time>
      </trkpt>
      <trkpt lat="45.94343" lon="4.5922">
        <ele>474</ele>
        <time>2021-08-30T20:24:58Z</time>
      </trkpt>
      <trkpt lat="45.94356" lon="4.59246">
        <ele>477</ele>
        <time>2021-08-30T20:25:28Z</time>
      </trkpt>
      <trkpt lat="45.94364" lon="4.59259">
        <ele>480</ele>
        <time>2021-08-30T20:25:44Z</time>
      </trkpt>
      <trkpt lat="45.94376" lon="4.59267">
        <ele>483</ele>
        <time>2021-08-30T20:26:02Z</time>
      </trkpt>
      <trkpt lat="45.94389" lon="4.59272">
        <ele>486</ele>
        <time>2021-08-30T20:26:20Z</time>
      </trkpt>
      <trkpt lat="45.94414" lon="4.5927">
        <ele>491</ele>
        <time>2021-08-30T20:26:53Z</time>
      </trkpt>
      <trkpt lat="45.94423" lon="4.59264">
        <ele>492</ele>
        <time>2021-08-30T20:27:06Z</time>
      </trkpt>
      <trkpt lat="45.94422" lon="4.59277">
        <ele>493</ele>
        <time>2021-08-30T20:27:19Z</time>
      </trkpt>
      <trkpt lat="45.94412" lon="4.59291">
        <ele>492</ele>
        <time>2021-08-30T20:27:37Z</time>
      </trkpt>
      <trkpt lat="45.94405" lon="4.59295">
        <ele>491</ele>
        <time>2021-08-30T20:27:47Z</time>
      </trkpt>
      <trkpt lat="45.94395" lon="4.59296">
        <ele>490</ele>
        <time>2021-08-30T20:28:01Z</time>
      </trkpt>
      <trkpt lat="45.94327" lon="4.59286">
        <ele>479</ele>
        <time>2021-08-30T20:29:32Z</time>
      </trkpt>
      <trkpt lat="45.943" lon="4.59286">
        <ele>477</ele>
        <time>2021-08-30T20:30:08Z</time>
      </trkpt>
      <trkpt lat="45.94287" lon="4.5929">
        <ele>477</ele>
        <time>2021-08-30T20:30:26Z</time>
      </trkpt>
      <trkpt lat="45.9427" lon="4.59283">
        <ele>474</ele>
        <time>2021-08-30T20:30:49Z</time>
      </trkpt>
      <trkpt lat="45.94245" lon="4.59295">
        <ele>476</ele>
        <time>2021-08-30T20:31:24Z</time>
      </trkpt>
      <trkpt lat="45.94208" lon="4.59288">
        <ele>476</ele>
        <time>2021-08-30T20:32:14Z</time>
      </trkpt>
      <trkpt lat="45.94187" lon="4.59278">
        <ele>474</ele>
        <time>2021-08-30T20:32:44Z</time>
      </trkpt>
      <trkpt lat="45.94167" lon="4.59255">
        <ele>470</ele>
        <time>2021-08-30T20:33:18Z</time>
      </trkpt>
      <trkpt lat="45.94157" lon="4.59241">
        <ele>467</ele>
        <time>2021-08-30T20:33:37Z</time>
      </trkpt>
      <trkpt lat="45.94156" lon="4.59229">
        <ele>464</ele>
        <time>2021-08-30T20:33:48Z</time>
      </trkpt>
      <trkpt lat="45.94135" lon="4.59192">
        <ele>456</ele>
        <time>2021-08-30T20:34:32Z</time>
      </trkpt>
      <trkpt lat="45.94096" lon="4.59245">
        <ele>465</ele>
        <time>2021-08-30T20:35:44Z</time>
      </trkpt>
      <trkpt lat="45.94074" lon="4.59244">
        <ele>462</ele>
        <time>2021-08-30T20:36:13Z</time>
      </trkpt>
      <trkpt lat="45.94056" lon="4.59252">
        <ele>458</ele>
        <time>2021-08-30T20:36:38Z</time>
      </trkpt>
      <trkpt lat="45.94035" lon="4.59265">
        <ele>455</ele>
        <time>2021-08-30T20:37:09Z</time>
      </trkpt>
      <trkpt lat="45.94014" lon="4.59326">
        <ele>460</ele>
        <time>2021-08-30T20:38:12Z</time>
      </trkpt>
      <trkpt lat="45.93993" lon="4.5934">
        <ele>458</ele>
        <time>2021-08-30T20:38:43Z</time>
      </trkpt>
      <trkpt lat="45.93964" lon="4.59355">
        <ele>457</ele>
        <time>2021-08-30T20:39:24Z</time>
      </trkpt>
      <trkpt lat="45.93874" lon="4.59387">
        <ele>459</ele>
        <time>2021-08-30T20:41:28Z</time>
      </trkpt>
      <trkpt lat="45.9385" lon="4.59418">
        <ele>464</ele>
        <time>2021-08-30T20:42:11Z</time>
      </trkpt>
      <trkpt lat="45.93827" lon="4.59509">
        <ele>475</ele>
        <time>2021-08-30T20:43:41Z</time>
      </trkpt>
      <trkpt lat="45.93807" lon="4.59546">
        <ele>478</ele>
        <time>2021-08-30T20:44:24Z</time>
      </trkpt>
      <trkpt lat="45.93804" lon="4.59557">
        <ele>479</ele>
        <time>2021-08-30T20:44:35Z</time>
      </trkpt>
      <trkpt lat="45.93804" lon="4.59596">
        <ele>483</ele>
        <time>2021-08-30T20:45:11Z</time>
      </trkpt>
      <trkpt lat="45.93917" lon="4.59601">
        <ele>491</ele>
        <time>2021-08-30T20:47:42Z</time>
      </trkpt>
      <trkpt lat="45.93963" lon="4.59607">
        <ele>495</ele>
        <time>2021-08-30T20:48:44Z</time>
      </trkpt>
      <trkpt lat="45.93975" lon="4.59621">
        <ele>495</ele>
        <time>2021-08-30T20:49:04Z</time>
      </trkpt>
      <trkpt lat="45.93994" lon="4.59653">
        <ele>495</ele>
        <time>2021-08-30T20:49:43Z</time>
      </trkpt>
      <trkpt lat="45.94004" lon="4.59666">
        <ele>496</ele>
        <time>2021-08-30T20:50:01Z</time>
      </trkpt>
      <trkpt lat="45.94016" lon="4.59675">
        <ele>497</ele>
        <time>2021-08-30T20:50:19Z</time>
      </trkpt>
      <trkpt lat="45.94035" lon="4.59684">
        <ele>499</ele>
        <time>2021-08-30T20:50:46Z</time>
      </trkpt>
      <trkpt lat="45.94064" lon="4.59689">
        <ele>503</ele>
        <time>2021-08-30T20:51:25Z</time>
      </trkpt>
      <trkpt lat="45.94069" lon="4.59702">
        <ele>502</ele>
        <time>2021-08-30T20:51:39Z</time>
      </trkpt>
      <trkpt lat="45.94067" lon="4.59724">
        <ele>498</ele>
        <time>2021-08-30T20:51:59Z</time>
      </trkpt>
      <trkpt lat="45.94048" lon="4.59785">
        <ele>493</ele>
        <time>2021-08-30T20:53:01Z</time>
      </trkpt>
      <trkpt lat="45.94042" lon="4.5982">
        <ele>492</ele>
        <time>2021-08-30T20:53:35Z</time>
      </trkpt>
      <trkpt lat="45.9404" lon="4.59854">
        <ele>493</ele>
        <time>2021-08-30T20:54:07Z</time>
      </trkpt>
      <trkpt lat="45.94028" lon="4.59946">
        <ele>496</ele>
        <time>2021-08-30T20:55:33Z</time>
      </trkpt>
      <trkpt lat="45.94015" lon="4.60025">
        <ele>498</ele>
        <time>2021-08-30T20:56:49Z</time>
      </trkpt>
      <trkpt lat="45.94012" lon="4.60052">
        <ele>499</ele>
        <time>2021-08-30T20:57:14Z</time>
      </trkpt>
      <trkpt lat="45.94012" lon="4.60133">
        <ele>501</ele>
        <time>2021-08-30T20:58:29Z</time>
      </trkpt>
      <trkpt lat="45.9401" lon="4.60142">
        <ele>501</ele>
        <time>2021-08-30T20:58:38Z</time>
      </trkpt>
      <trkpt lat="45.93999" lon="4.60158">
        <ele>502</ele>
        <time>2021-08-30T20:58:59Z</time>
      </trkpt>
      <trkpt lat="45.93927" lon="4.60235">
        <ele>499</ele>
        <time>2021-08-30T21:00:59Z</time>
      </trkpt>
      <trkpt lat="45.93889" lon="4.60268">
        <ele>496</ele>
        <time>2021-08-30T21:01:58Z</time>
      </trkpt>
      <trkpt lat="45.93875" lon="4.60286">
        <ele>495</ele>
        <time>2021-08-30T21:02:23Z</time>
      </trkpt>
      <trkpt lat="45.93841" lon="4.60345">
        <ele>487</ele>
        <time>2021-08-30T21:03:34Z</time>
      </trkpt>
      <trkpt lat="45.93813" lon="4.60388">
        <ele>483</ele>
        <time>2021-08-30T21:04:29Z</time>
      </trkpt>
      <trkpt lat="45.93788" lon="4.60421">
        <ele>480</ele>
        <time>2021-08-30T21:05:14Z</time>
      </trkpt>
      <trkpt lat="45.93745" lon="4.60471">
        <ele>472</ele>
        <time>2021-08-30T21:06:28Z</time>
      </trkpt>
      <trkpt lat="45.9372" lon="4.60495">
        <ele>468</ele>
        <time>2021-08-30T21:07:08Z</time>
      </trkpt>
      <trkpt lat="45.93686" lon="4.60513">
        <ele>467</ele>
        <time>2021-08-30T21:07:56Z</time>
      </trkpt>
      <trkpt lat="45.93632" lon="4.60567">
        <ele>456</ele>
        <time>2021-08-30T21:09:24Z</time>
      </trkpt>
      <trkpt lat="45.93602" lon="4.6061">
        <ele>451</ele>
        <time>2021-08-30T21:10:21Z</time>
      </trkpt>
      <trkpt lat="45.93592" lon="4.60628">
        <ele>449</ele>
        <time>2021-08-30T21:10:42Z</time>
      </trkpt>
      <trkpt lat="45.93707" lon="4.60848">
        <ele>419</ele>
        <time>2021-08-30T21:14:57Z</time>
      </trkpt>
      <trkpt lat="45.93712" lon="4.60854">
        <ele>419</ele>
        <time>2021-08-30T21:15:06Z</time>
      </trkpt>
      <trkpt lat="45.93721" lon="4.60857">
        <ele>418</ele>
        <time>2021-08-30T21:15:18Z</time>
      </trkpt>
      <trkpt lat="45.93738" lon="4.60842">
        <ele>419</ele>
        <time>2021-08-30T21:15:45Z</time>
      </trkpt>
      <trkpt lat="45.93742" lon="4.60842">
        <ele>419</ele>
        <time>2021-08-30T21:15:50Z</time>
      </trkpt>
      <trkpt lat="45.93746" lon="4.60844">
        <ele>418</ele>
        <time>2021-08-30T21:15:56Z</time>
      </trkpt>
      <trkpt lat="45.93761" lon="4.60869">
        <ele>416</ele>
        <time>2021-08-30T21:16:27Z</time>
      </trkpt>
      <trkpt lat="45.93767" lon="4.60861">
        <ele>417</ele>
        <time>2021-08-30T21:16:38Z</time>
      </trkpt>
      <trkpt lat="45.93761" lon="4.60869">
        <ele>416</ele>
        <time>2021-08-30T21:16:49Z</time>
      </trkpt>
      <trkpt lat="45.93746" lon="4.60844">
        <ele>418</ele>
        <time>2021-08-30T21:17:19Z</time>
      </trkpt>
      <trkpt lat="45.93742" lon="4.60842">
        <ele>419</ele>
        <time>2021-08-30T21:17:25Z</time>
      </trkpt>
      <trkpt lat="45.93738" lon="4.60842">
        <ele>419</ele>
        <time>2021-08-30T21:17:30Z</time>
      </trkpt>
      <trkpt lat="45.93721" lon="4.60857">
        <ele>418</ele>
        <time>2021-08-30T21:17:57Z</time>
      </trkpt>
      <trkpt lat="45.93712" lon="4.60854">
        <ele>419</ele>
        <time>2021-08-30T21:18:09Z</time>
      </trkpt>
      <trkpt lat="45.93707" lon="4.60848">
        <ele>419</ele>
        <time>2021-08-30T21:18:18Z</time>
      </trkpt>
      <trkpt lat="45.93635" lon="4.60711">
        <ele>437</ele>
        <time>2021-08-30T21:20:57Z</time>
      </trkpt>
      <trkpt lat="45.93707" lon="4.60848">
        <ele>419</ele>
        <time>2021-08-30T21:23:37Z</time>
      </trkpt>
      <trkpt lat="45.93712" lon="4.60854">
        <ele>419</ele>
        <time>2021-08-30T21:23:45Z</time>
      </trkpt>
      <trkpt lat="45.93721" lon="4.60857">
        <ele>418</ele>
        <time>2021-08-30T21:23:58Z</time>
      </trkpt>
      <trkpt lat="45.93738" lon="4.60842">
        <ele>419</ele>
        <time>2021-08-30T21:24:24Z</time>
      </trkpt>
      <trkpt lat="45.93742" lon="4.60842">
        <ele>419</ele>
        <time>2021-08-30T21:24:30Z</time>
      </trkpt>
      <trkpt lat="45.93746" lon="4.60844">
        <ele>418</ele>
        <time>2021-08-30T21:24:35Z</time>
      </trkpt>
      <trkpt lat="45.93761" lon="4.60869">
        <ele>416</ele>
        <time>2021-08-30T21:25:06Z</time>
      </trkpt>
      <trkpt lat="45.9379" lon="4.60831">
        <ele>418</ele>
        <time>2021-08-30T21:25:58Z</time>
      </trkpt>
      <trkpt lat="45.93801" lon="4.60821">
        <ele>418</ele>
        <time>2021-08-30T21:26:16Z</time>
      </trkpt>
      <trkpt lat="45.93815" lon="4.60812">
        <ele>418</ele>
        <time>2021-08-30T21:26:36Z</time>
      </trkpt>
      <trkpt lat="45.93843" lon="4.6078">
        <ele>418</ele>
        <time>2021-08-30T21:27:24Z</time>
      </trkpt>
      <trkpt lat="45.93923" lon="4.60684">
        <ele>421</ele>
        <time>2021-08-30T21:29:43Z</time>
      </trkpt>
      <trkpt lat="45.93953" lon="4.60664">
        <ele>423</ele>
        <time>2021-08-30T21:30:27Z</time>
      </trkpt>
      <trkpt lat="45.94005" lon="4.60646">
        <ele>427</ele>
        <time>2021-08-30T21:31:38Z</time>
      </trkpt>
      <trkpt lat="45.94015" lon="4.60657">
        <ele>427</ele>
        <time>2021-08-30T21:31:55Z</time>
      </trkpt>
      <trkpt lat="45.94018" lon="4.60675">
        <ele>427</ele>
        <time>2021-08-30T21:32:12Z</time>
      </trkpt>
      <trkpt lat="45.94014" lon="4.60691">
        <ele>428</ele>
        <time>2021-08-30T21:32:28Z</time>
      </trkpt>
      <trkpt lat="45.93975" lon="4.60755">
        <ele>424</ele>
        <time>2021-08-30T21:33:47Z</time>
      </trkpt>
      <trkpt lat="45.93964" lon="4.60788">
        <ele>425</ele>
        <time>2021-08-30T21:34:21Z</time>
      </trkpt>
      <trkpt lat="45.93959" lon="4.60812">
        <ele>427</ele>
        <time>2021-08-30T21:34:44Z</time>
      </trkpt>
      <trkpt lat="45.93952" lon="4.60898">
        <ele>434</ele>
        <time>2021-08-30T21:36:05Z</time>
      </trkpt>
      <trkpt lat="45.93941" lon="4.60972">
        <ele>439</ele>
        <time>2021-08-30T21:37:15Z</time>
      </trkpt>
      <trkpt lat="45.93939" lon="4.61013">
        <ele>443</ele>
        <time>2021-08-30T21:37:53Z</time>
      </trkpt>
      <trkpt lat="45.93926" lon="4.61083">
        <ele>445</ele>
        <time>2021-08-30T21:39:00Z</time>
      </trkpt>
      <trkpt lat="45.93912" lon="4.61125">
        <ele>445</ele>
        <time>2021-08-30T21:39:43Z</time>
      </trkpt>
      <trkpt lat="45.93911" lon="4.61147">
        <ele>446</ele>
        <time>2021-08-30T21:40:04Z</time>
      </trkpt>
      <trkpt lat="45.93918" lon="4.61179">
        <ele>449</ele>
        <time>2021-08-30T21:40:35Z</time>
      </trkpt>
      <trkpt lat="45.93929" lon="4.61193">
        <ele>451</ele>
        <time>2021-08-30T21:40:55Z</time>
      </trkpt>
      <trkpt lat="45.9394" lon="4.61202">
        <ele>452</ele>
        <time>2021-08-30T21:41:11Z</time>
      </trkpt>
      <trkpt lat="45.93949" lon="4.61213">
        <ele>453</ele>
        <time>2021-08-30T21:41:27Z</time>
      </trkpt>
      <trkpt lat="45.93957" lon="4.61227">
        <ele>454</ele>
        <time>2021-08-30T21:41:44Z</time>
      </trkpt>
      <trkpt lat="45.93976" lon="4.61307">
        <ele>454</ele>
        <time>2021-08-30T21:43:03Z</time>
      </trkpt>
      <trkpt lat="45.93992" lon="4.61402">
        <ele>456</ele>
        <time>2021-08-30T21:44:33Z</time>
      </trkpt>
      <trkpt lat="45.93981" lon="4.61439">
        <ele>455</ele>
        <time>2021-08-30T21:45:11Z</time>
      </trkpt>
      <trkpt lat="45.93984" lon="4.61444">
        <ele>455</ele>
        <time>2021-08-30T21:45:17Z</time>
      </trkpt>
      <trkpt lat="45.93985" lon="4.61447">
        <ele>455</ele>
        <time>2021-08-30T21:45:20Z</time>
      </trkpt>
      <trkpt lat="45.93982" lon="4.61454">
        <ele>455</ele>
        <time>2021-08-30T21:45:27Z</time>
      </trkpt>
      <trkpt lat="45.9398" lon="4.61456">
        <ele>455</ele>
        <time>2021-08-30T21:45:31Z</time>
      </trkpt>
      <trkpt lat="45.93984" lon="4.61498">
        <ele>455</ele>
        <time>2021-08-30T21:46:10Z</time>
      </trkpt>
      <trkpt lat="45.9399" lon="4.61545">
        <ele>457</ele>
        <time>2021-08-30T21:46:54Z</time>
      </trkpt>
      <trkpt lat="45.93992" lon="4.61545">
        <ele>457</ele>
        <time>2021-08-30T21:46:57Z</time>
      </trkpt>
      <trkpt lat="45.9399" lon="4.61545">
        <ele>457</ele>
        <time>2021-08-30T21:47:00Z</time>
      </trkpt>
      <trkpt lat="45.93991" lon="4.61573">
        <ele>458</ele>
        <time>2021-08-30T21:47:26Z</time>
      </trkpt>
      <trkpt lat="45.93975" lon="4.61611">
        <ele>457</ele>
        <time>2021-08-30T21:48:07Z</time>
      </trkpt>
      <trkpt lat="45.93964" lon="4.61626">
        <ele>456</ele>
        <time>2021-08-30T21:48:27Z</time>
      </trkpt>
      <trkpt lat="45.9399" lon="4.61658">
        <ele>462</ele>
        <time>2021-08-30T21:49:13Z</time>
      </trkpt>
      <trkpt lat="45.94006" lon="4.61699">
        <ele>463</ele>
        <time>2021-08-30T21:49:56Z</time>
      </trkpt>
      <trkpt lat="45.94013" lon="4.61711">
        <ele>463</ele>
        <time>2021-08-30T21:50:11Z</time>
      </trkpt>
      <trkpt lat="45.94015" lon="4.61699">
        <ele>464</ele>
        <time>2021-08-30T21:50:22Z</time>
      </trkpt>
      <trkpt lat="45.94018" lon="4.61688">
        <ele>465</ele>
        <time>2021-08-30T21:50:33Z</time>
      </trkpt>
      <trkpt lat="45.94029" lon="4.61664">
        <ele>467</ele>
        <time>2021-08-30T21:51:00Z</time>
      </trkpt>
      <trkpt lat="45.94042" lon="4.61655">
        <ele>468</ele>
        <time>2021-08-30T21:51:19Z</time>
      </trkpt>
      <trkpt lat="45.94069" lon="4.61652">
        <ele>471</ele>
        <time>2021-08-30T21:51:55Z</time>
      </trkpt>
      <trkpt lat="45.94088" lon="4.61637">
        <ele>473</ele>
        <time>2021-08-30T21:52:24Z</time>
      </trkpt>
      <trkpt lat="45.9409" lon="4.6164">
        <ele>473</ele>
        <time>2021-08-30T21:52:28Z</time>
      </trkpt>
      <trkpt lat="45.94091" lon="4.61648">
        <ele>474</ele>
        <time>2021-08-30T21:52:36Z</time>
      </trkpt>
      <trkpt lat="45.94089" lon="4.61668">
        <ele>474</ele>
        <time>2021-08-30T21:52:55Z</time>
      </trkpt>
      <trkpt lat="45.94092" lon="4.61698">
        <ele>471</ele>
        <time>2021-08-30T21:53:23Z</time>
      </trkpt>
      <trkpt lat="45.94089" lon="4.61668">
        <ele>474</ele>
        <time>2021-08-30T21:53:51Z</time>
      </trkpt>
      <trkpt lat="45.94091" lon="4.61648">
        <ele>474</ele>
        <time>2021-08-30T21:54:10Z</time>
      </trkpt>
      <trkpt lat="45.9409" lon="4.6164">
        <ele>473</ele>
        <time>2021-08-30T21:54:17Z</time>
      </trkpt>
      <trkpt lat="45.94088" lon="4.61637">
        <ele>473</ele>
        <time>2021-08-30T21:54:21Z</time>
      </trkpt>
      <trkpt lat="45.94098" lon="4.61632">
        <ele>475</ele>
        <time>2021-08-30T21:54:35Z</time>
      </trkpt>
      <trkpt lat="45.94127" lon="4.61622">
        <ele>480</ele>
        <time>2021-08-30T21:55:15Z</time>
      </trkpt>
      <trkpt lat="45.94135" lon="4.61621">
        <ele>482</ele>
        <time>2021-08-30T21:55:26Z</time>
      </trkpt>
      <trkpt lat="45.94156" lon="4.61624">
        <ele>486</ele>
        <time>2021-08-30T21:55:54Z</time>
      </trkpt>
      <trkpt lat="45.94135" lon="4.61621">
        <ele>482</ele>
        <time>2021-08-30T21:56:22Z</time>
      </trkpt>
      <trkpt lat="45.94127" lon="4.61622">
        <ele>480</ele>
        <time>2021-08-30T21:56:33Z</time>
      </trkpt>
      <trkpt lat="45.94098" lon="4.61632">
        <ele>475</ele>
        <time>2021-08-30T21:57:12Z</time>
      </trkpt>
      <trkpt lat="45.94069" lon="4.61652">
        <ele>471</ele>
        <time>2021-08-30T21:57:55Z</time>
      </trkpt>
      <trkpt lat="45.94042" lon="4.61655">
        <ele>468</ele>
        <time>2021-08-30T21:58:31Z</time>
      </trkpt>
      <trkpt lat="45.94029" lon="4.61664">
        <ele>467</ele>
        <time>2021-08-30T21:58:51Z</time>
      </trkpt>
      <trkpt lat="45.94018" lon="4.61688">
        <ele>465</ele>
        <time>2021-08-30T21:59:17Z</time>
      </trkpt>
      <trkpt lat="45.94015" lon="4.61699">
        <ele>464</ele>
        <time>2021-08-30T21:59:28Z</time>
      </trkpt>
      <trkpt lat="45.94013" lon="4.61711">
        <ele>463</ele>
        <time>2021-08-30T21:59:40Z</time>
      </trkpt>
      <trkpt lat="45.94038" lon="4.61744">
        <ele>464</ele>
        <time>2021-08-30T22:00:25Z</time>
      </trkpt>
      <trkpt lat="45.94048" lon="4.61764">
        <ele>462</ele>
        <time>2021-08-30T22:00:48Z</time>
      </trkpt>
      <trkpt lat="45.94065" lon="4.61782">
        <ele>461</ele>
        <time>2021-08-30T22:01:16Z</time>
      </trkpt>
      <trkpt lat="45.94083" lon="4.61797">
        <ele>461</ele>
        <time>2021-08-30T22:01:44Z</time>
      </trkpt>
      <trkpt lat="45.94098" lon="4.61805">
        <ele>459</ele>
        <time>2021-08-30T22:02:05Z</time>
      </trkpt>
      <trkpt lat="45.94118" lon="4.61809">
        <ele>458</ele>
        <time>2021-08-30T22:02:32Z</time>
      </trkpt>
      <trkpt lat="45.94125" lon="4.61809">
        <ele>458</ele>
        <time>2021-08-30T22:02:42Z</time>
      </trkpt>
      <trkpt lat="45.94128" lon="4.61784">
        <ele>461</ele>
        <time>2021-08-30T22:03:05Z</time>
      </trkpt>
      <trkpt lat="45.9413" lon="4.6178">
        <ele>462</ele>
        <time>2021-08-30T22:03:10Z</time>
      </trkpt>
      <trkpt lat="45.94136" lon="4.6178">
        <ele>462</ele>
        <time>2021-08-30T22:03:18Z</time>
      </trkpt>
      <trkpt lat="45.94302" lon="4.61801">
        <ele>465</ele>
        <time>2021-08-30T22:07:00Z</time>
      </trkpt>
      <trkpt lat="45.94305" lon="4.61797">
        <ele>465</ele>
        <time>2021-08-30T22:07:05Z</time>
      </trkpt>
      <trkpt lat="45.94313" lon="4.61751">
        <ele>472</ele>
        <time>2021-08-30T22:07:49Z</time>
      </trkpt>
      <trkpt lat="45.94316" lon="4.61746">
        <ele>474</ele>
        <time>2021-08-30T22:07:56Z</time>
      </trkpt>
      <trkpt lat="45.9432" lon="4.61744">
        <ele>475</ele>
        <time>2021-08-30T22:08:01Z</time>
      </trkpt>
      <trkpt lat="45.94339" lon="4.61745">
        <ele>476</ele>
        <time>2021-08-30T22:08:27Z</time>
      </trkpt>
      <trkpt lat="45.94357" lon="4.61735">
        <ele>479</ele>
        <time>2021-08-30T22:08:52Z</time>
      </trkpt>
      <trkpt lat="45.94362" lon="4.61735">
        <ele>480</ele>
        <time>2021-08-30T22:08:59Z</time>
      </trkpt>
      <trkpt lat="45.9446" lon="4.61747">
        <ele>478</ele>
        <time>2021-08-30T22:11:10Z</time>
      </trkpt>
      <trkpt lat="45.94494" lon="4.61736">
        <ele>478</ele>
        <time>2021-08-30T22:11:57Z</time>
      </trkpt>
      <trkpt lat="45.94563" lon="4.61699">
        <ele>477</ele>
        <time>2021-08-30T22:13:35Z</time>
      </trkpt>
      <trkpt lat="45.94619" lon="4.61673">
        <ele>479</ele>
        <time>2021-08-30T22:14:54Z</time>
      </trkpt>
      <trkpt lat="45.94603" lon="4.61681">
        <ele>478</ele>
        <time>2021-08-30T22:15:16Z</time>
      </trkpt>
      <trkpt lat="45.94646" lon="4.61639">
        <ele>485</ele>
        <time>2021-08-30T22:16:26Z</time>
      </trkpt>
      <trkpt lat="45.94671" lon="4.61622">
        <ele>487</ele>
        <time>2021-08-30T22:17:02Z</time>
      </trkpt>
      <trkpt lat="45.94681" lon="4.61612">
        <ele>489</ele>
        <time>2021-08-30T22:17:19Z</time>
      </trkpt>
      <trkpt lat="45.94722" lon="4.61556">
        <ele>497</ele>
        <time>2021-08-30T22:18:34Z</time>
      </trkpt>
      <trkpt lat="45.94742" lon="4.61531">
        <ele>500</ele>
        <time>2021-08-30T22:19:10Z</time>
      </trkpt>
      <trkpt lat="45.94756" lon="4.61507">
        <ele>504</ele>
        <time>2021-08-30T22:19:39Z</time>
      </trkpt>
      <trkpt lat="45.9478" lon="4.61488">
        <ele>506</ele>
        <time>2021-08-30T22:20:15Z</time>
      </trkpt>
      <trkpt lat="45.9482" lon="4.61472">
        <ele>506</ele>
        <time>2021-08-30T22:21:11Z</time>
      </trkpt>
      <trkpt lat="45.94832" lon="4.61465">
        <ele>506</ele>
        <time>2021-08-30T22:21:28Z</time>
      </trkpt>
      <trkpt lat="45.9484" lon="4.61455">
        <ele>507</ele>
        <time>2021-08-30T22:21:42Z</time>
      </trkpt>
      <trkpt lat="45.94844" lon="4.61443">
        <ele>509</ele>
        <time>2021-08-30T22:21:54Z</time>
      </trkpt>
      <trkpt lat="45.94845" lon="4.61434">
        <ele>510</ele>
        <time>2021-08-30T22:22:03Z</time>
      </trkpt>
      <trkpt lat="45.94844" lon="4.61404">
        <ele>514</ele>
        <time>2021-08-30T22:22:31Z</time>
      </trkpt>
      <trkpt lat="45.94842" lon="4.61391">
        <ele>516</ele>
        <time>2021-08-30T22:22:43Z</time>
      </trkpt>
      <trkpt lat="45.94825" lon="4.61351">
        <ele>523</ele>
        <time>2021-08-30T22:23:27Z</time>
      </trkpt>
      <trkpt lat="45.94823" lon="4.61327">
        <ele>527</ele>
        <time>2021-08-30T22:23:49Z</time>
      </trkpt>
      <trkpt lat="45.94819" lon="4.61321">
        <ele>529</ele>
        <time>2021-08-30T22:23:57Z</time>
      </trkpt>
      <trkpt lat="45.94811" lon="4.61316">
        <ele>531</ele>
        <time>2021-08-30T22:24:08Z</time>
      </trkpt>
      <trkpt lat="45.94773" lon="4.61308">
        <ele>538</ele>
        <time>2021-08-30T22:25:00Z</time>
      </trkpt>
      <trkpt lat="45.94752" lon="4.61299">
        <ele>543</ele>
        <time>2021-08-30T22:25:29Z</time>
      </trkpt>
      <trkpt lat="45.94739" lon="4.61307">
        <ele>542</ele>
        <time>2021-08-30T22:25:48Z</time>
      </trkpt>
      <trkpt lat="45.94754" lon="4.61241">
        <ele>552</ele>
        <time>2021-08-30T22:26:52Z</time>
      </trkpt>
      <trkpt lat="45.94776" lon="4.61195">
        <ele>555</ele>
        <time>2021-08-30T22:27:44Z</time>
      </trkpt>
      <trkpt lat="45.94798" lon="4.61146">
        <ele>558</ele>
        <time>2021-08-30T22:28:38Z</time>
      </trkpt>
      <trkpt lat="45.94829" lon="4.61038">
        <ele>566</ele>
        <time>2021-08-30T22:30:26Z</time>
      </trkpt>
      <trkpt lat="45.94843" lon="4.61011">
        <ele>568</ele>
        <time>2021-08-30T22:30:58Z</time>
      </trkpt>
      <trkpt lat="45.94864" lon="4.60958">
        <ele>571</ele>
        <time>2021-08-30T22:31:54Z</time>
      </trkpt>
      <trkpt lat="45.94875" lon="4.60927">
        <ele>573</ele>
        <time>2021-08-30T22:32:27Z</time>
      </trkpt>
      <trkpt lat="45.94876" lon="4.6088">
        <ele>575</ele>
        <time>2021-08-30T22:33:10Z</time>
      </trkpt>
      <trkpt lat="45.9487" lon="4.60852">
        <ele>577</ele>
        <time>2021-08-30T22:33:37Z</time>
      </trkpt>
      <trkpt lat="45.94842" lon="4.6074">
        <ele>580</ele>
        <time>2021-08-30T22:35:28Z</time>
      </trkpt>
      <trkpt lat="45.94818" lon="4.60673">
        <ele>576</ele>
        <time>2021-08-30T22:36:38Z</time>
      </trkpt>
      <trkpt lat="45.94809" lon="4.60642">
        <ele>573</ele>
        <time>2021-08-30T22:37:09Z</time>
      </trkpt>
      <trkpt lat="45.94819" lon="4.6058">
        <ele>572</ele>
        <time>2021-08-30T22:38:08Z</time>
      </trkpt>
      <trkpt lat="45.9483" lon="4.60551">
        <ele>572</ele>
        <time>2021-08-30T22:38:39Z</time>
      </trkpt>
      <trkpt lat="45.94863" lon="4.60495">
        <ele>568</ele>
        <time>2021-08-30T22:39:47Z</time>
      </trkpt>
      <trkpt lat="45.94899" lon="4.6044">
        <ele>570</ele>
        <time>2021-08-30T22:40:57Z</time>
      </trkpt>
      <trkpt lat="45.94911" lon="4.60419">
        <ele>573</ele>
        <time>2021-08-30T22:41:22Z</time>
      </trkpt>
      <trkpt lat="45.94983" lon="4.60315">
        <ele>570</ele>
        <time>2021-08-30T22:43:38Z</time>
      </trkpt>
      <trkpt lat="45.95003" lon="4.60282">
        <ele>572</ele>
        <time>2021-08-30T22:44:19Z</time>
      </trkpt>
      <trkpt lat="45.95004" lon="4.60273">
        <ele>572</ele>
        <time>2021-08-30T22:44:27Z</time>
      </trkpt>
      <trkpt lat="45.95013" lon="4.60273">
        <ele>572</ele>
        <time>2021-08-30T22:44:39Z</time>
      </trkpt>
      <trkpt lat="45.95029" lon="4.60264">
        <ele>573</ele>
        <time>2021-08-30T22:45:02Z</time>
      </trkpt>
      <trkpt lat="45.95017" lon="4.60221">
        <ele>570</ele>
        <time>2021-08-30T22:45:45Z</time>
      </trkpt>
      <trkpt lat="45.95008" lon="4.60162">
        <ele>563</ele>
        <time>2021-08-30T22:46:41Z</time>
      </trkpt>
      <trkpt lat="45.95003" lon="4.60146">
        <ele>561</ele>
        <time>2021-08-30T22:46:58Z</time>
      </trkpt>
      <trkpt lat="45.94995" lon="4.60136">
        <ele>559</ele>
        <time>2021-08-30T22:47:12Z</time>
      </trkpt>
      <trkpt lat="45.95005" lon="4.60077">
        <ele>556</ele>
        <time>2021-08-30T22:48:08Z</time>
      </trkpt>
      <trkpt lat="45.95008" lon="4.60044">
        <ele>556</ele>
        <time>2021-08-30T22:48:39Z</time>
      </trkpt>
      <trkpt lat="45.95012" lon="4.59921">
        <ele>555</ele>
        <time>2021-08-30T22:50:33Z</time>
      </trkpt>
      <trkpt lat="45.9501" lon="4.59803">
        <ele>555</ele>
        <time>2021-08-30T22:52:23Z</time>
      </trkpt>
      <trkpt lat="45.95001" lon="4.5977">
        <ele>553</ele>
        <time>2021-08-30T22:52:56Z</time>
      </trkpt>
      <trkpt lat="45.94999" lon="4.59757">
        <ele>553</ele>
        <time>2021-08-30T22:53:08Z</time>
      </trkpt>
      <trkpt lat="45.95" lon="4.59698">
        <ele>554</ele>
        <time>2021-08-30T22:54:03Z</time>
      </trkpt>
      <trkpt lat="45.94994" lon="4.59615">
        <ele>554</ele>
        <time>2021-08-30T22:55:20Z</time>
      </trkpt>
      <trkpt lat="45.94996" lon="4.59586">
        <ele>555</ele>
        <time>2021-08-30T22:55:47Z</time>
      </trkpt>
      <trkpt lat="45.94995" lon="4.595">
        <ele>560</ele>
        <time>2021-08-30T22:57:07Z</time>
      </trkpt>
      <trkpt lat="45.94991" lon="4.59479">
        <ele>561</ele>
        <time>2021-08-30T22:57:27Z</time>
      </trkpt>
      <trkpt lat="45.94966" lon="4.59407">
        <ele>565</ele>
        <time>2021-08-30T22:58:42Z</time>
      </trkpt>
      <trkpt lat="45.94941" lon="4.59363">
        <ele>565</ele>
        <time>2021-08-30T22:59:35Z</time>
      </trkpt>
      <trkpt lat="45.9493" lon="4.59364">
        <ele>564</ele>
        <time>2021-08-30T22:59:49Z</time>
      </trkpt>
      <trkpt lat="45.94901" lon="4.59303">
        <ele>562</ele>
        <time>2021-08-30T23:00:58Z</time>
      </trkpt>
      <trkpt lat="45.94892" lon="4.59272">
        <ele>560</ele>
        <time>2021-08-30T23:01:29Z</time>
      </trkpt>
      <trkpt lat="45.94892" lon="4.59253">
        <ele>559</ele>
        <time>2021-08-30T23:01:47Z</time>
      </trkpt>
      <trkpt lat="45.94898" lon="4.59209">
        <ele>556</ele>
        <time>2021-08-30T23:02:28Z</time>
      </trkpt>
      <trkpt lat="45.949" lon="4.59177">
        <ele>554</ele>
        <time>2021-08-30T23:02:58Z</time>
      </trkpt>
      <trkpt lat="45.94893" lon="4.59145">
        <ele>549</ele>
        <time>2021-08-30T23:03:29Z</time>
      </trkpt>
      <trkpt lat="45.9489" lon="4.59121">
        <ele>547</ele>
        <time>2021-08-30T23:03:52Z</time>
      </trkpt>
      <trkpt lat="45.94889" lon="4.59105">
        <ele>545</ele>
        <time>2021-08-30T23:04:07Z</time>
      </trkpt>
      <trkpt lat="45.94892" lon="4.59084">
        <ele>543</ele>
        <time>2021-08-30T23:04:27Z</time>
      </trkpt>
      <trkpt lat="45.94894" lon="4.59059">
        <ele>541</ele>
        <time>2021-08-30T23:04:50Z</time>
      </trkpt>
      <trkpt lat="45.94852" lon="4.58975">
        <ele>534</ele>
        <time>2021-08-30T23:06:26Z</time>
      </trkpt>
      <trkpt lat="45.94849" lon="4.58959">
        <ele>533</ele>
        <time>2021-08-30T23:06:41Z</time>
      </trkpt>
      <trkpt lat="45.94849" lon="4.58935">
        <ele>532</ele>
        <time>2021-08-30T23:07:04Z</time>
      </trkpt>
      <trkpt lat="45.94835" lon="4.58914">
        <ele>531</ele>
        <time>2021-08-30T23:07:31Z</time>
      </trkpt>
      <trkpt lat="45.94843" lon="4.58886">
        <ele>528</ele>
        <time>2021-08-30T23:07:59Z</time>
      </trkpt>
      <trkpt lat="45.94861" lon="4.58836">
        <ele>524</ele>
        <time>2021-08-30T23:08:51Z</time>
      </trkpt>
      <trkpt lat="45.94897" lon="4.58775">
        <ele>521</ele>
        <time>2021-08-30T23:10:05Z</time>
      </trkpt>
      <trkpt lat="45.94937" lon="4.58722">
        <ele>522</ele>
        <time>2021-08-30T23:11:18Z</time>
      </trkpt>
      <trkpt lat="45.94949" lon="4.5869">
        <ele>522</ele>
        <time>2021-08-30T23:11:51Z</time>
      </trkpt>
      <trkpt lat="45.94954" lon="4.58649">
        <ele>522</ele>
        <time>2021-08-30T23:12:30Z</time>
      </trkpt>
      <trkpt lat="45.94952" lon="4.58619">
        <ele>522</ele>
        <time>2021-08-30T23:12:58Z</time>
      </trkpt>
      <trkpt lat="45.94947" lon="4.58591">
        <ele>522</ele>
        <time>2021-08-30T23:13:25Z</time>
      </trkpt>
      <trkpt lat="45.94919" lon="4.58501">
        <ele>526</ele>
        <time>2021-08-30T23:14:56Z</time>
      </trkpt>
      <trkpt lat="45.94912" lon="4.58474">
        <ele>526</ele>
        <time>2021-08-30T23:15:23Z</time>
      </trkpt>
      <trkpt lat="45.94916" lon="4.58454">
        <ele>526</ele>
        <time>2021-08-30T23:15:42Z</time>
      </trkpt>
      <trkpt lat="45.94913" lon="4.58442">
        <ele>526</ele>
        <time>2021-08-30T23:15:54Z</time>
      </trkpt>
      <trkpt lat="45.9491" lon="4.58394">
        <ele>527</ele>
        <time>2021-08-30T23:16:39Z</time>
      </trkpt>
      <trkpt lat="45.9491" lon="4.58341">
        <ele>527</ele>
        <time>2021-08-30T23:17:28Z</time>
      </trkpt>
      <trkpt lat="45.94905" lon="4.58302">
        <ele>526</ele>
        <time>2021-08-30T23:18:05Z</time>
      </trkpt>
      <trkpt lat="45.9489" lon="4.58214">
        <ele>521</ele>
        <time>2021-08-30T23:19:29Z</time>
      </trkpt>
    </trkseg>
  </trk>
</gpx>